Time;durP1;ratioP1;P1;durP2;ratioP2;P2;SDS_P1;SDS_P2;PMS_P1;PMS_P2;Temp;Humidity;BMP_temperature;BMP_pressure;BME280_temperature;BME280_humidity;BME280_pressure;Samples;Min_cycle;Max_cycle;Signal;HPM_P1;HPM_P2
2023/08/06 00:00:57;;;;;;;3.70;3.15;;;;;;;;;;4996666;28;20418;-81
2023/08/06 00:03:26;;;;;;;3.47;3.17;;;;;;;;;;4997695;28;20046;-81
2023/08/06 00:05:54;;;;;;;4.32;3.92;;;;;;;;;;4978741;28;20506;-81
2023/08/06 00:08:21;;;;;;;5.95;3.42;;;;;;;;;;4977499;28;20047;-81
2023/08/06 00:10:49;;;;;;;7.38;3.65;;;;;;;;;;4992595;28;20053;-81
2023/08/06 00:13:17;;;;;;;5.85;3.15;;;;;;;;;;4994442;28;20404;-81
2023/08/06 00:15:45;;;;;;;3.45;3.15;;;;;;;;;;4977461;28;20046;-81
2023/08/06 00:18:12;;;;;;;4.93;3.50;;;;;;;;;;4990384;28;20066;-81
2023/08/06 00:20:42;;;;;;;3.60;3.13;;;;;;;;;;5124128;23;20044;-83
2023/08/06 00:23:09;;;;;;;6.05;4.28;;;;;;;;;;5005679;28;20054;-83
2023/08/06 00:25:37;;;;;;;6.43;3.33;;;;;;;;;;4981047;28;20413;-82
2023/08/06 00:28:05;;;;;;;4.85;3.88;;;;;;;;;;5002170;28;20042;-82
2023/08/06 00:30:34;;;;;;;7.75;3.67;;;;;;;;;;4999609;28;20046;-82
2023/08/06 00:33:01;;;;;;;5.63;3.97;;;;;;;;;;4984694;28;20054;-82
2023/08/06 00:35:29;;;;;;;5.03;3.65;;;;;;;;;;4991961;28;20045;-83
2023/08/06 00:37:56;;;;;;;4.63;4.22;;;;;;;;;;4978975;28;20053;-83
2023/08/06 00:40:24;;;;;;;7.00;4.18;;;;;;;;;;5008542;28;20053;-83
2023/08/06 00:42:51;;;;;;;4.18;3.78;;;;;;;;;;4997976;28;20053;-83
2023/08/06 00:45:18;;;;;;;5.75;3.00;;;;;;;;;;4994512;28;20060;-83
2023/08/06 00:47:47;;;;;;;4.93;4.18;;;;;;;;;;5006464;28;20046;-83
2023/08/06 00:50:16;;;;;;;4.38;3.42;;;;;;;;;;5013293;28;20042;-83
2023/08/06 00:52:43;;;;;;;4.07;3.50;;;;;;;;;;4999716;28;20050;-83
2023/08/06 00:55:11;;;;;;;5.97;3.80;;;;;;;;;;4980129;28;20058;-83
2023/08/06 00:57:38;;;;;;;4.70;3.95;;;;;;;;;;5000795;28;20037;-83
2023/08/06 01:00:07;;;;;;;6.75;4.18;;;;;;;;;;4991435;28;20057;-83
2023/08/06 01:02:35;;;;;;;4.13;3.72;;;;;;;;;;4993467;28;20054;-83
2023/08/06 01:05:04;;;;;;;4.53;4.00;;;;;;;;;;5005648;28;20054;-83
2023/08/06 01:07:41;;;;;;;5.65;3.88;;;;;;;;;;5000625;28;20046;-83
2023/08/06 01:10:20;;;;;;;6.25;4.32;;;;;;;;;;5007347;28;20065;-85
2023/08/06 01:12:53;;;;;;;6.38;3.45;;;;;;;;;;5010349;28;20508;-83
2023/08/06 01:15:23;;;;;;;4.03;3.28;;;;;;;;;;5006970;28;20046;-83
2023/08/06 01:17:51;;;;;;;3.63;3.30;;;;;;;;;;4980661;28;20057;-83
2023/08/06 01:20:20;;;;;;;4.30;3.55;;;;;;;;;;4978589;28;20047;-83
2023/08/06 01:22:49;;;;;;;4.85;3.40;;;;;;;;;;4979901;28;20050;-83
2023/08/06 01:25:17;;;;;;;8.35;3.58;;;;;;;;;;4982454;28;20057;-83
2023/08/06 01:27:48;;;;;;;4.32;3.60;;;;;;;;;;4989607;28;20077;-83
2023/08/06 01:30:18;;;;;;;4.90;2.70;;;;;;;;;;4992868;28;20057;-83
2023/08/06 01:32:50;;;;;;;4.05;3.35;;;;;;;;;;4984710;28;20053;-83
2023/08/06 01:35:20;;;;;;;3.67;3.17;;;;;;;;;;4999952;28;20058;-83
2023/08/06 01:37:49;;;;;;;3.78;3.17;;;;;;;;;;4988731;28;20056;-83
2023/08/06 01:40:18;;;;;;;3.70;3.40;;;;;;;;;;4991702;28;20414;-83
2023/08/06 01:42:46;;;;;;;4.00;3.33;;;;;;;;;;4983736;28;20433;-83
2023/08/06 01:45:14;;;;;;;4.45;3.97;;;;;;;;;;4984146;28;20061;-83
2023/08/06 01:47:42;;;;;;;6.35;4.03;;;;;;;;;;4992640;28;20050;-83
2023/08/06 01:50:10;;;;;;;5.63;3.90;;;;;;;;;;4978723;28;20506;-83
2023/08/06 01:52:43;;;;;;;3.92;3.63;;;;;;;;;;5003864;28;20054;-83
2023/08/06 01:55:19;;;;;;;3.53;3.17;;;;;;;;;;4998046;28;20045;-83
2023/08/06 01:57:46;;;;;;;3.92;3.53;;;;;;;;;;4974814;28;20043;-83
2023/08/06 02:00:15;;;;;;;4.75;3.53;;;;;;;;;;5000344;28;20050;-83
2023/08/06 02:02:43;;;;;;;4.03;3.05;;;;;;;;;;5004085;28;20058;-83
2023/08/06 02:05:11;;;;;;;6.60;3.70;;;;;;;;;;5007622;28;20054;-85
2023/08/06 02:07:40;;;;;;;5.43;3.60;;;;;;;;;;5010386;28;20042;-84
2023/08/06 02:10:09;;;;;;;5.40;3.78;;;;;;;;;;4979081;28;20517;-84
2023/08/06 02:12:37;;;;;;;3.50;3.20;;;;;;;;;;4986912;28;20065;-84
2023/08/06 02:15:06;;;;;;;5.57;3.85;;;;;;;;;;5006329;28;20053;-84
2023/08/06 02:17:34;;;;;;;8.43;4.10;;;;;;;;;;4990950;28;20057;-84
2023/08/06 02:20:01;;;;;;;4.22;3.83;;;;;;;;;;4978831;28;20051;-84
2023/08/06 02:22:29;;;;;;;4.18;3.47;;;;;;;;;;4985706;28;20049;-84
2023/08/06 02:24:57;;;;;;;5.88;3.88;;;;;;;;;;5001882;28;20042;-84
2023/08/06 02:27:24;;;;;;;5.80;4.53;;;;;;;;;;4987008;28;20057;-84
2023/08/06 02:29:56;;;;;;;4.70;4.18;;;;;;;;;;4992696;28;20134;-84
2023/08/06 02:32:23;;;;;;;5.32;3.85;;;;;;;;;;4997839;28;20057;-84
2023/08/06 02:34:53;;;;;;;4.95;3.88;;;;;;;;;;5000751;28;20046;-83
2023/08/06 02:37:20;;;;;;;3.97;3.28;;;;;;;;;;4980630;28;20061;-83
2023/08/06 02:59:45;;;;;;;6.53;4.32;;;;;;;;;;6148444;23;20022;-84
2023/08/06 03:02:18;;;;;;;3.55;2.90;;;;;;;;;;4919427;29;20051;-84
2023/08/06 03:04:55;;;;;;;4.97;4.57;;;;;;;;;;4915027;29;20058;-85
2023/08/06 03:07:26;;;;;;;7.00;5.68;;;;;;;;;;4901645;29;20051;-84
2023/08/06 03:10:00;;;;;;;4.13;3.63;;;;;;;;;;4904413;29;20040;-84
2023/08/06 03:12:28;;;;;;;3.70;3.22;;;;;;;;;;4919198;29;20311;-84
2023/08/06 03:14:56;;;;;;;6.63;3.38;;;;;;;;;;4919623;29;20052;-84
2023/08/06 03:17:25;;;;;;;5.07;3.50;;;;;;;;;;4919051;29;20059;-84
2023/08/06 03:19:55;;;;;;;2.00;1.80;;;;;;;;;;4912566;29;20051;-84
2023/08/06 03:22:23;;;;;;;4.88;2.95;;;;;;;;;;4918805;29;20060;-84
2023/08/06 03:24:51;;;;;;;3.60;2.50;;;;;;;;;;4908608;29;20403;-84
2023/08/06 03:27:19;;;;;;;2.63;2.00;;;;;;;;;;4918543;29;20058;-84
2023/08/06 03:29:50;;;;;;;5.53;2.58;;;;;;;;;;4897124;29;20071;-84
2023/08/06 03:32:20;;;;;;;8.07;2.33;;;;;;;;;;4918929;29;20051;-84
2023/08/06 03:34:52;;;;;;;2.83;2.15;;;;;;;;;;4902174;29;20063;-84
2023/08/06 03:37:21;;;;;;;5.78;2.65;;;;;;;;;;4918751;29;20059;-84
2023/08/06 03:39:49;;;;;;;4.38;2.53;;;;;;;;;;4919616;29;20519;-84
2023/08/06 03:42:18;;;;;;;3.03;1.67;;;;;;;;;;4903644;29;20059;-84
2023/08/06 03:44:47;;;;;;;2.58;1.75;;;;;;;;;;4900651;29;20492;-84
2023/08/06 03:47:17;;;;;;;2.95;2.22;;;;;;;;;;4934526;29;20055;-84
2023/08/06 03:49:46;;;;;;;3.53;2.15;;;;;;;;;;4900380;29;20048;-84
2023/08/06 03:52:19;;;;;;;5.03;2.45;;;;;;;;;;4903504;29;20059;-84
2023/08/06 03:54:48;;;;;;;;;;;;;;;;;;4917927;29;20079;-83
2023/08/06 03:57:15;;;;;;;8.10;2.78;;;;;;;;;;4918919;29;19927;-84
2023/08/06 03:59:43;;;;;;;4.05;2.38;;;;;;;;;;4915876;29;20052;-83
2023/08/06 04:02:10;;;;;;;3.08;2.20;;;;;;;;;;4903113;29;20054;-83
2023/08/06 04:04:38;;;;;;;3.72;2.35;;;;;;;;;;4917872;29;20056;-84
2023/08/06 04:07:05;;;;;;;6.82;2.67;;;;;;;;;;4906737;29;20058;-84
2023/08/06 04:09:36;;;;;;;2.83;2.42;;;;;;;;;;4916062;29;20059;-84
2023/08/06 04:12:07;;;;;;;2.67;1.92;;;;;;;;;;4916254;29;20059;-84
2023/08/06 04:14:34;;;;;;;5.97;2.33;;;;;;;;;;4918589;29;20506;-83
2023/08/06 04:17:05;;;;;;;3.70;2.50;;;;;;;;;;4914269;29;20059;-83
2023/08/06 04:19:32;;;;;;;6.82;2.58;;;;;;;;;;4902926;29;20496;-83
2023/08/06 04:22:03;;;;;;;3.03;1.92;;;;;;;;;;4933922;29;20047;-83
2023/08/06 04:24:33;;;;;;;3.47;1.90;;;;;;;;;;4901387;29;20051;-83
2023/08/06 04:27:05;;;;;;;1.80;1.40;;;;;;;;;;4899417;29;20052;-83
2023/08/06 04:29:32;;;;;;;2.30;1.55;;;;;;;;;;4918746;29;20052;-84
2023/08/06 04:32:00;;;;;;;4.80;1.52;;;;;;;;;;4902211;29;20551;-84
2023/08/06 04:34:27;;;;;;;1.52;1.00;;;;;;;;;;4897522;29;20059;-84
2023/08/06 04:36:55;;;;;;;2.08;1.35;;;;;;;;;;4899045;29;20059;-84
2023/08/06 04:39:24;;;;;;;2.30;1.58;;;;;;;;;;4915201;29;20060;-84
2023/08/06 04:41:52;;;;;;;2.67;1.45;;;;;;;;;;4901015;29;20415;-84
2023/08/06 04:44:21;;;;;;;2.28;1.13;;;;;;;;;;4932271;29;20071;-84
2023/08/06 04:46:50;;;;;;;1.50;1.10;;;;;;;;;;4915956;29;20543;-84
2023/08/06 04:49:18;;;;;;;4.05;1.73;;;;;;;;;;4886141;29;20059;-83
2023/08/06 04:51:45;;;;;;;4.50;1.63;;;;;;;;;;4916253;29;20048;-83
2023/08/06 04:54:15;;;;;;;3.58;1.75;;;;;;;;;;4902194;29;20052;-84
2023/08/06 04:56:42;;;;;;;2.50;1.35;;;;;;;;;;4914110;29;20048;-84
2023/08/06 04:59:11;;;;;;;2.92;1.35;;;;;;;;;;4914500;29;20063;-84
2023/08/06 05:01:40;;;;;;;5.47;1.55;;;;;;;;;;4915015;29;20044;-83
2023/08/06 05:04:07;;;;;;;2.85;1.73;;;;;;;;;;4911937;29;20515;-83
2023/08/06 05:06:41;;;;;;;3.13;1.55;;;;;;;;;;4909850;29;20411;-84
2023/08/06 05:09:08;;;;;;;9.20;1.63;;;;;;;;;;4902425;29;20415;-83
2023/08/06 05:11:42;;;;;;;2.22;1.05;;;;;;;;;;4915714;29;20074;-84
2023/08/06 05:14:10;;;;;;;15.98;1.52;;;;;;;;;;4918210;29;20055;-84
2023/08/06 05:16:41;;;;;;;2.65;1.85;;;;;;;;;;4913708;29;20539;-84
2023/08/06 05:19:21;;;;;;;3.10;0.98;;;;;;;;;;4917490;29;20062;-84
2023/08/06 05:21:53;;;;;;;1.98;0.82;;;;;;;;;;4917480;29;20048;-83
2023/08/06 05:24:51;;;;;;;;;;;;;;;;;;;;;
2023/08/06 05:27:54;;;;;;;5.45;1.85;;;;;;;;;;4913121;29;20055;-84
2023/08/06 05:30:32;;;;;;;4.78;1.90;;;;;;;;;;4841629;29;20045;-84
2023/08/06 05:33:07;;;;;;;1.55;1.15;;;;;;;;;;4842174;29;20103;-84
2023/08/06 05:35:40;;;;;;;3.58;1.20;;;;;;;;;;4858306;29;20057;-84
2023/08/06 05:38:07;;;;;;;4.32;1.92;;;;;;;;;;4876394;29;20062;-84
2023/08/06 05:40:35;;;;;;;1.33;0.77;;;;;;;;;;4901336;29;20100;-84
2023/08/06 05:43:02;;;;;;;1.98;1.10;;;;;;;;;;4913190;29;20048;-84
2023/08/06 05:45:30;;;;;;;2.75;1.73;;;;;;;;;;4906401;29;20678;-83
2023/08/06 06:42:45;;;;;;;1.58;0.70;;;;;;;;;;5717380;23;20059;-82
2023/08/06 06:45:14;;;;;;;1.52;0.73;;;;;;;;;;4919461;29;20058;-82
2023/08/06 06:47:41;;;;;;;1.00;0.90;;;;;;;;;;4911193;29;20060;-83
2023/08/06 06:50:10;;;;;;;0.55;0.47;;;;;;;;;;4903258;29;20052;-83
2023/08/06 06:52:38;;;;;;;1.30;1.10;;;;;;;;;;4917837;29;20043;-83
2023/08/06 06:55:06;;;;;;;1.95;0.70;;;;;;;;;;4918474;29;20060;-83
2023/08/06 06:57:35;;;;;;;1.38;0.65;;;;;;;;;;4920568;23;20044;-89
2023/08/06 07:00:07;;;;;;;1.90;0.93;;;;;;;;;;4908071;29;20059;-91
2023/08/06 07:02:35;;;;;;;3.05;1.02;;;;;;;;;;4901987;29;20534;-88
2023/08/06 07:05:02;;;;;;;4.10;0.80;;;;;;;;;;4923722;29;20054;-88
2023/08/06 07:07:29;;;;;;;1.13;0.63;;;;;;;;;;4924141;29;20676;-89
2023/08/06 07:09:57;;;;;;;3.47;0.80;;;;;;;;;;4919400;29;20055;-88
2023/08/06 07:12:26;;;;;;;1.10;0.82;;;;;;;;;;4922986;29;20062;-89
2023/08/06 07:14:54;;;;;;;1.60;0.70;;;;;;;;;;4935498;29;20055;-89
2023/08/06 07:17:23;;;;;;;2.80;0.57;;;;;;;;;;4912341;29;20055;-89
2023/08/06 07:19:50;;;;;;;0.80;0.57;;;;;;;;;;4897457;29;20588;-90
2023/08/06 07:22:20;;;;;;;1.75;0.70;;;;;;;;;;4912786;29;20052;-90
2023/08/06 07:24:49;;;;;;;0.60;0.43;;;;;;;;;;4926348;29;20080;-91
2023/08/06 07:27:17;;;;;;;0.65;0.50;;;;;;;;;;4915361;29;20052;-89
2023/08/06 07:29:44;;;;;;;0.65;0.47;;;;;;;;;;4917293;29;20055;-90
2023/08/06 07:32:12;;;;;;;3.78;2.53;;;;;;;;;;4917091;29;20063;-89
2023/08/06 07:34:42;;;;;;;2.88;0.50;;;;;;;;;;4917828;29;20052;-90
2023/08/06 07:37:10;;;;;;;1.15;0.55;;;;;;;;;;4919423;29;20063;-90
2023/08/06 07:39:41;;;;;;;0.47;0.47;;;;;;;;;;4922910;29;20063;-90
2023/08/06 07:42:11;;;;;;;3.13;0.88;;;;;;;;;;4922427;29;20043;-90
2023/08/06 07:44:38;;;;;;;0.75;0.60;;;;;;;;;;4924020;29;20436;-90
2023/08/06 07:47:06;;;;;;;1.13;0.57;;;;;;;;;;4918958;29;20059;-89
2023/08/06 07:49:34;;;;;;;1.85;0.50;;;;;;;;;;4916595;29;20044;-89
2023/08/06 07:52:03;;;;;;;1.25;0.40;;;;;;;;;;4924953;29;20047;-90
2023/08/06 07:54:30;;;;;;;2.47;0.60;;;;;;;;;;4907601;29;20059;-90
2023/08/06 07:56:58;;;;;;;0.68;0.50;;;;;;;;;;4917009;29;20051;-90
2023/08/06 07:59:27;;;;;;;2.17;0.77;;;;;;;;;;4915487;29;20071;-89
2023/08/06 08:01:55;;;;;;;2.50;0.80;;;;;;;;;;4909532;29;20048;-88
2023/08/06 08:04:22;;;;;;;2.47;0.88;;;;;;;;;;4917452;29;20494;-89
2023/08/06 08:06:49;;;;;;;0.68;0.43;;;;;;;;;;4926245;29;20062;-91
2023/08/06 08:09:21;;;;;;;2.08;0.85;;;;;;;;;;4921345;29;20060;-89
2023/08/06 08:11:48;;;;;;;1.08;0.93;;;;;;;;;;4932075;29;20067;-89
2023/08/06 08:14:16;;;;;;;1.83;0.50;;;;;;;;;;4929864;29;20063;-89
2023/08/06 08:16:43;;;;;;;0.73;0.50;;;;;;;;;;4920628;29;20059;-88
2023/08/06 08:19:13;;;;;;;1.65;0.65;;;;;;;;;;4934937;29;20514;-89
2023/08/06 08:21:41;;;;;;;0.70;0.63;;;;;;;;;;4918893;29;20059;-89
2023/08/06 08:24:10;;;;;;;0.60;0.50;;;;;;;;;;4908022;29;20062;-91
2023/08/06 08:26:39;;;;;;;2.28;0.80;;;;;;;;;;4920108;29;20043;-89
2023/08/06 08:29:09;;;;;;;0.75;0.73;;;;;;;;;;4928208;29;20052;-89
2023/08/06 08:31:39;;;;;;;2.05;0.43;;;;;;;;;;4932397;29;20523;-91
2023/08/06 08:34:06;;;;;;;2.92;0.90;;;;;;;;;;4913584;29;20063;-89
2023/08/06 08:36:36;;;;;;;3.30;1.42;;;;;;;;;;4916289;29;20063;-89
2023/08/06 08:39:04;;;;;;;2.83;1.52;;;;;;;;;;4903256;29;20086;-89
2023/08/06 08:41:38;;;;;;;0.70;0.40;;;;;;;;;;4919313;29;20533;-90
2023/08/06 08:44:09;;;;;;;11.00;0.80;;;;;;;;;;4919503;29;20209;-90
2023/08/06 08:46:38;;;;;;;0.77;0.60;;;;;;;;;;4923000;29;20431;-89
2023/08/06 08:49:06;;;;;;;1.25;0.70;;;;;;;;;;4931633;29;20059;-89
2023/08/06 08:51:34;;;;;;;0.98;0.70;;;;;;;;;;4917857;29;20502;-89
2023/08/06 08:54:04;;;;;;;1.95;0.68;;;;;;;;;;4917297;29;20068;-89
2023/08/06 08:56:32;;;;;;;0.35;0.32;;;;;;;;;;4912600;29;20063;-89
2023/08/06 08:59:00;;;;;;;0.45;0.45;;;;;;;;;;4901558;29;20059;-89
2023/08/06 09:01:29;;;;;;;0.50;0.25;;;;;;;;;;4914880;29;20074;-89
2023/08/06 09:03:59;;;;;;;0.43;0.20;;;;;;;;;;4921636;29;20048;-89
2023/08/06 09:06:28;;;;;;;0.70;0.60;;;;;;;;;;4898330;29;20052;-90
2023/08/06 09:09:03;;;;;;;1.55;0.50;;;;;;;;;;4931181;29;20052;-90
2023/08/06 09:11:38;;;;;;;0.60;0.43;;;;;;;;;;4917774;29;20055;-90
2023/08/06 09:14:18;;;;;;;0.20;0.20;;;;;;;;;;4925503;29;20427;-89
2023/08/06 09:16:47;;;;;;;4.80;0.40;;;;;;;;;;4904610;29;20056;-90
2023/08/06 09:19:17;;;;;;;1.08;0.20;;;;;;;;;;4925002;29;20047;-89
2023/08/06 09:21:48;;;;;;;0.10;0.10;;;;;;;;;;4931503;29;20414;-89
2023/08/06 09:24:16;;;;;;;0.93;0.30;;;;;;;;;;4918313;29;20571;-89
2023/08/06 09:26:45;;;;;;;0.30;0.22;;;;;;;;;;4911749;29;20426;-90
2023/08/06 09:29:15;;;;;;;0.20;0.20;;;;;;;;;;4916983;29;20066;-90
2023/08/06 09:31:48;;;;;;;0.38;0.25;;;;;;;;;;4927172;29;20510;-89
2023/08/06 09:34:17;;;;;;;0.38;0.35;;;;;;;;;;4913710;29;20048;-88
2023/08/06 09:36:48;;;;;;;0.40;0.40;;;;;;;;;;4919674;29;20043;-89
2023/08/06 09:39:17;;;;;;;0.40;0.40;;;;;;;;;;4911707;29;20435;-89
2023/08/06 09:41:47;;;;;;;1.02;0.30;;;;;;;;;;4902602;29;20051;-89
2023/08/06 09:44:19;;;;;;;0.45;0.38;;;;;;;;;;4924125;29;20495;-91
2023/08/06 09:46:51;;;;;;;0.50;0.40;;;;;;;;;;4913598;29;20052;-89
2023/08/06 09:49:20;;;;;;;0.75;0.40;;;;;;;;;;4899586;29;20052;-90
2023/08/06 09:51:50;;;;;;;1.25;0.40;;;;;;;;;;4912295;29;20055;-90
2023/08/06 09:54:20;;;;;;;0.30;0.30;;;;;;;;;;4901419;29;20058;-89
2023/08/06 09:56:54;;;;;;;0.40;0.40;;;;;;;;;;4911667;29;20056;-91
2023/08/06 09:59:24;;;;;;;0.40;0.30;;;;;;;;;;4899091;29;20051;-90
2023/08/06 10:01:55;;;;;;;0.40;0.38;;;;;;;;;;4926775;29;20055;-91
2023/08/06 10:04:22;;;;;;;0.30;0.20;;;;;;;;;;4908915;29;20515;-90
2023/08/06 10:06:52;;;;;;;0.55;0.30;;;;;;;;;;4922994;29;20058;-89
2023/08/06 10:09:20;;;;;;;0.75;0.40;;;;;;;;;;4924195;29;20051;-89
2023/08/06 10:11:52;;;;;;;0.20;0.20;;;;;;;;;;4926438;29;20055;-90
2023/08/06 10:14:28;;;;;;;0.50;0.40;;;;;;;;;;4932286;29;20045;-90
2023/08/06 10:16:56;;;;;;;;;;;;;;;;;;4908042;29;20077;-90
2023/08/06 10:19:24;;;;;;;0.88;0.28;;;;;;;;;;4909073;29;19930;-89
2023/08/06 10:22:12;;;;;;;0.45;0.43;;;;;;;;;;4930400;29;20059;-90
2023/08/06 10:24:50;;;;;;;0.40;0.30;;;;;;;;;;4905330;29;20044;-90
2023/08/06 10:27:24;;;;;;;2.30;0.40;;;;;;;;;;4922663;29;20062;-90
2023/08/06 10:29:51;;;;;;;0.25;0.25;;;;;;;;;;4931927;29;20060;-89
2023/08/06 10:32:21;;;;;;;1.00;0.30;;;;;;;;;;4926842;29;20040;-91
2023/08/06 10:34:55;;;;;;;0.40;0.40;;;;;;;;;;4910055;29;20048;-90
2023/08/06 10:37:25;;;;;;;0.55;0.55;;;;;;;;;;4899570;29;20059;-89
2023/08/06 10:39:55;;;;;;;0.50;0.47;;;;;;;;;;4922623;29;20051;-88
2023/08/06 10:42:29;;;;;;;0.30;0.30;;;;;;;;;;4905820;29;20055;-89
2023/08/06 10:45:16;;;;;;;2.45;0.50;;;;;;;;;;4907626;29;20537;-90
2023/08/06 10:47:45;;;;;;;0.65;0.40;;;;;;;;;;4931855;29;20052;-89
2023/08/06 10:50:16;;;;;;;0.40;0.20;;;;;;;;;;4934371;29;20055;-89
2023/08/06 10:52:47;;;;;;;0.68;0.60;;;;;;;;;;4926990;29;20055;-88
2023/08/06 10:55:14;;;;;;;0.35;0.32;;;;;;;;;;4920599;29;20047;-89
2023/08/06 10:57:42;;;;;;;0.80;0.50;;;;;;;;;;4905325;29;20059;-89
2023/08/06 11:00:13;;;;;;;0.40;0.35;;;;;;;;;;4935945;29;20767;-90
2023/08/06 11:02:41;;;;;;;0.57;0.40;;;;;;;;;;4922866;29;20062;-89
2023/08/06 11:05:11;;;;;;;0.55;0.40;;;;;;;;;;4918986;29;20052;-89
2023/08/06 11:07:40;;;;;;;0.43;0.40;;;;;;;;;;4933016;29;20430;-89
2023/08/06 11:10:12;;;;;;;0.70;0.52;;;;;;;;;;4918287;29;20071;-90
2023/08/06 11:12:39;;;;;;;0.35;0.35;;;;;;;;;;4901285;29;20048;-89
2023/08/06 11:15:08;;;;;;;0.38;0.30;;;;;;;;;;4909334;29;20055;-90
2023/08/06 11:17:36;;;;;;;1.75;0.40;;;;;;;;;;4917463;29;20063;-90
2023/08/06 11:20:04;;;;;;;1.40;0.50;;;;;;;;;;4933597;29;20048;-90
2023/08/06 11:22:37;;;;;;;1.23;0.50;;;;;;;;;;4922004;29;20055;-89
2023/08/06 11:25:05;;;;;;;0.88;0.75;;;;;;;;;;4920365;29;20059;-89
2023/08/06 11:27:32;;;;;;;0.65;0.60;;;;;;;;;;4926903;29;20542;-89
2023/08/06 11:30:02;;;;;;;1.38;0.47;;;;;;;;;;4931419;29;20059;-89
2023/08/06 11:32:32;;;;;;;0.85;0.70;;;;;;;;;;4907143;29;20055;-88
2023/08/06 11:35:00;;;;;;;1.02;0.43;;;;;;;;;;4916904;29;20055;-89
2023/08/06 11:37:27;;;;;;;0.95;0.65;;;;;;;;;;4900788;29;20070;-88
2023/08/06 11:39:56;;;;;;;2.38;0.55;;;;;;;;;;4899765;29;20055;-88
2023/08/06 11:42:25;;;;;;;1.60;0.73;;;;;;;;;;4931348;29;20039;-88
2023/08/06 11:44:52;;;;;;;0.90;0.77;;;;;;;;;;4921371;29;20478;-88
2023/08/06 11:47:20;;;;;;;1.35;0.80;;;;;;;;;;4931868;29;20048;-88
2023/08/06 11:49:51;;;;;;;1.42;0.80;;;;;;;;;;4911567;29;20058;-87
2023/08/06 11:52:22;;;;;;;3.30;1.20;;;;;;;;;;4914279;29;20055;-89
2023/08/06 11:55:03;;;;;;;1.33;0.60;;;;;;;;;;4900049;29;20043;-89
2023/08/06 11:57:32;;;;;;;1.80;1.00;;;;;;;;;;4915663;29;20092;-89
2023/08/06 12:00:04;;;;;;;1.98;1.40;;;;;;;;;;4917577;29;20067;-89
2023/08/06 12:02:43;;;;;;;2.42;1.60;;;;;;;;;;4922182;29;20071;-89
2023/08/06 12:05:14;;;;;;;2.15;1.25;;;;;;;;;;4932673;29;20047;-88
2023/08/06 12:07:42;;;;;;;1.88;1.20;;;;;;;;;;4921645;29;20047;-91
2023/08/06 12:10:12;;;;;;;1.10;0.90;;;;;;;;;;4924622;29;20619;-90
2023/08/06 12:12:40;;;;;;;1.23;0.95;;;;;;;;;;4927837;29;20060;-88
2023/08/06 12:15:10;;;;;;;5.45;1.30;;;;;;;;;;4931447;29;20043;-88
2023/08/06 12:17:40;;;;;;;2.70;1.15;;;;;;;;;;4910718;29;20555;-88
2023/08/06 12:20:12;;;;;;;1.83;0.90;;;;;;;;;;4934068;29;20132;-89
2023/08/06 12:22:42;;;;;;;1.45;0.90;;;;;;;;;;4925004;29;20051;-88
2023/08/06 12:25:14;;;;;;;1.67;1.38;;;;;;;;;;4908376;29;20062;-89
2023/08/06 12:27:42;;;;;;;1.50;1.10;;;;;;;;;;4934781;29;20052;-88
2023/08/06 12:30:10;;;;;;;2.03;1.02;;;;;;;;;;4927463;29;20460;-89
2023/08/06 12:32:39;;;;;;;1.85;1.48;;;;;;;;;;4917687;29;20047;-89
2023/08/06 12:35:08;;;;;;;2.00;1.27;;;;;;;;;;4935927;29;20090;-89
2023/08/06 12:37:36;;;;;;;2.33;1.25;;;;;;;;;;4915641;29;20211;-88
2023/08/06 12:40:04;;;;;;;1.73;1.02;;;;;;;;;;4924883;29;20499;-89
2023/08/06 12:42:33;;;;;;;1.08;0.95;;;;;;;;;;4920294;29;20059;-88
2023/08/06 12:45:02;;;;;;;1.58;1.15;;;;;;;;;;4934292;29;20046;-88
2023/08/06 12:47:32;;;;;;;3.67;1.38;;;;;;;;;;4938250;29;20073;-89
2023/08/06 12:50:02;;;;;;;2.30;1.50;;;;;;;;;;4924275;29;20055;-88
2023/08/06 12:52:29;;;;;;;2.10;1.25;;;;;;;;;;4933243;29;20067;-89
2023/08/06 12:54:57;;;;;;;1.88;1.40;;;;;;;;;;4926894;29;20076;-89
2023/08/06 12:57:29;;;;;;;2.30;1.73;;;;;;;;;;4926285;29;20051;-88
2023/08/06 13:00:00;;;;;;;4.18;1.58;;;;;;;;;;4921944;29;20052;-88
2023/08/06 13:02:29;;;;;;;2.65;1.60;;;;;;;;;;4923926;29;20051;-89
2023/08/06 13:05:05;;;;;;;1.50;1.20;;;;;;;;;;4916858;29;20403;-89
2023/08/06 13:07:32;;;;;;;2.13;1.30;;;;;;;;;;4913259;29;20056;-89
2023/08/06 13:10:00;;;;;;;1.95;1.40;;;;;;;;;;4923944;29;20052;-89
2023/08/06 13:12:29;;;;;;;1.17;1.08;;;;;;;;;;4916744;29;20051;-89
2023/08/06 13:14:59;;;;;;;1.38;1.00;;;;;;;;;;4899496;29;20470;-89
2023/08/06 13:17:31;;;;;;;1.52;1.42;;;;;;;;;;4900781;29;20043;-90
2023/08/06 13:20:03;;;;;;;1.73;1.02;;;;;;;;;;4914614;29;20047;-89
2023/08/06 13:22:33;;;;;;;5.47;1.45;;;;;;;;;;4914834;29;20569;-90
2023/08/06 13:25:00;;;;;;;4.20;1.35;;;;;;;;;;4923261;29;20056;-88
2023/08/06 13:27:30;;;;;;;2.03;1.70;;;;;;;;;;4916465;29;20055;-90
2023/08/06 13:29:57;;;;;;;1.00;0.95;;;;;;;;;;4919367;29;20048;-90
2023/08/06 13:32:24;;;;;;;1.90;1.42;;;;;;;;;;4925246;29;20055;-89
2023/08/06 13:34:53;;;;;;;2.05;1.35;;;;;;;;;;4918092;29;20069;-90
2023/08/06 13:37:23;;;;;;;1.98;1.65;;;;;;;;;;4908846;29;20051;-90
2023/08/06 13:39:50;;;;;;;1.42;1.20;;;;;;;;;;4928998;29;20063;-90
2023/08/06 13:42:17;;;;;;;2.22;1.20;;;;;;;;;;4932908;29;20771;-90
2023/08/06 13:44:45;;;;;;;1.65;1.00;;;;;;;;;;4901698;29;20060;-89
2023/08/06 13:47:14;;;;;;;1.40;0.98;;;;;;;;;;4913104;29;20052;-90
2023/08/06 13:49:44;;;;;;;1.45;0.90;;;;;;;;;;4931916;29;20051;-90
2023/08/06 13:52:13;;;;;;;1.48;0.93;;;;;;;;;;4928895;29;20050;-90
2023/08/06 13:54:40;;;;;;;3.22;1.58;;;;;;;;;;4915858;29;20052;-90
2023/08/06 13:57:07;;;;;;;1.33;1.02;;;;;;;;;;4932669;29;20323;-90
2023/08/06 13:59:35;;;;;;;1.67;1.20;;;;;;;;;;4900017;29;20066;-89
2023/08/06 14:02:02;;;;;;;2.85;1.63;;;;;;;;;;4923964;29;20056;-89
2023/08/06 14:04:32;;;;;;;1.20;1.02;;;;;;;;;;4899977;29;20052;-90
2023/08/06 14:06:59;;;;;;;1.80;1.08;;;;;;;;;;4919062;29;20534;-90
2023/08/06 14:09:28;;;;;;;1.67;1.20;;;;;;;;;;4911687;29;20055;-89
2023/08/06 14:11:57;;;;;;;1.55;1.20;;;;;;;;;;4918177;29;20055;-89
2023/08/06 14:14:27;;;;;;;2.00;1.15;;;;;;;;;;4921364;29;20055;-89
2023/08/06 14:16:55;;;;;;;2.10;1.35;;;;;;;;;;4928959;29;20043;-89
2023/08/06 14:19:22;;;;;;;2.15;1.38;;;;;;;;;;4914301;29;20052;-89
2023/08/06 14:21:50;;;;;;;3.05;1.33;;;;;;;;;;4926231;29;20052;-88
2023/08/06 14:24:17;;;;;;;1.42;0.98;;;;;;;;;;4937387;29;20062;-89
2023/08/06 14:26:46;;;;;;;1.25;0.80;;;;;;;;;;4937178;29;20524;-89
2023/08/06 14:29:14;;;;;;;1.05;0.75;;;;;;;;;;4918410;29;20544;-88
2023/08/06 14:31:41;;;;;;;1.65;1.02;;;;;;;;;;4921615;29;20076;-89
2023/08/06 14:34:09;;;;;;;1.38;0.80;;;;;;;;;;4924867;29;20052;-88
2023/08/06 14:36:36;;;;;;;1.42;0.70;;;;;;;;;;4923158;29;20047;-89
2023/08/06 14:39:04;;;;;;;1.20;0.88;;;;;;;;;;4937414;29;20056;-88
2023/08/06 14:41:31;;;;;;;3.38;0.90;;;;;;;;;;4937348;29;20837;-89
2023/08/06 14:44:00;;;;;;;1.13;0.77;;;;;;;;;;4926599;29;20044;-88
2023/08/06 14:46:27;;;;;;;0.80;0.70;;;;;;;;;;4929951;29;20047;-89
2023/08/06 14:48:55;;;;;;;1.55;1.08;;;;;;;;;;4904863;29;20130;-88
2023/08/06 14:51:23;;;;;;;1.08;0.77;;;;;;;;;;4926658;29;20048;-89
2023/08/06 14:53:52;;;;;;;2.50;1.10;;;;;;;;;;4918239;29;20420;-89
2023/08/06 14:56:20;;;;;;;1.48;1.10;;;;;;;;;;4912425;29;20056;-88
2023/08/06 14:58:47;;;;;;;1.98;0.80;;;;;;;;;;4936239;29;20055;-89
2023/08/06 15:01:16;;;;;;;2.50;1.17;;;;;;;;;;4925486;29;20059;-88
2023/08/06 15:03:44;;;;;;;4.40;1.00;;;;;;;;;;4928291;29;20062;-89
2023/08/06 15:06:11;;;;;;;5.47;1.10;;;;;;;;;;4910661;29;20430;-89
2023/08/06 15:08:38;;;;;;;1.48;0.82;;;;;;;;;;4917760;29;20066;-88
2023/08/06 15:11:09;;;;;;;4.20;0.85;;;;;;;;;;4938419;29;20051;-89
2023/08/06 15:13:36;;;;;;;2.67;0.98;;;;;;;;;;4920148;29;20051;-89
2023/08/06 15:16:04;;;;;;;3.13;0.88;;;;;;;;;;4930579;29;20466;-89
2023/08/06 15:18:32;;;;;;;7.35;1.30;;;;;;;;;;4904796;29;20054;-89
2023/08/06 15:21:02;;;;;;;1.45;1.20;;;;;;;;;;4920790;29;20066;-90
2023/08/06 15:23:29;;;;;;;3.08;1.48;;;;;;;;;;4919858;29;20056;-90
2023/08/06 15:25:59;;;;;;;3.03;1.35;;;;;;;;;;4927746;29;20575;-90
2023/08/06 15:28:26;;;;;;;2.05;1.25;;;;;;;;;;4913307;29;20056;-90
2023/08/06 15:30:55;;;;;;;1.38;0.82;;;;;;;;;;4917700;29;20046;-90
2023/08/06 15:33:27;;;;;;;1.95;1.35;;;;;;;;;;4917643;29;20067;-90
2023/08/06 15:35:56;;;;;;;1.90;1.20;;;;;;;;;;4908158;29;20055;-90
2023/08/06 15:38:23;;;;;;;1.60;1.42;;;;;;;;;;4911422;29;20052;-90
2023/08/06 15:40:50;;;;;;;2.33;1.33;;;;;;;;;;4917880;29;20051;-89
2023/08/06 15:43:20;;;;;;;2.17;1.20;;;;;;;;;;4898551;29;20052;-88
2023/08/06 15:45:47;;;;;;;2.45;1.50;;;;;;;;;;4931674;29;20559;-89
2023/08/06 15:48:18;;;;;;;2.47;1.40;;;;;;;;;;4919633;29;20422;-89
2023/08/06 15:50:45;;;;;;;2.40;1.00;;;;;;;;;;4916245;29;20071;-89
2023/08/06 15:53:15;;;;;;;1.73;1.63;;;;;;;;;;4920343;29;20056;-88
2023/08/06 15:55:42;;;;;;;2.88;1.88;;;;;;;;;;4916679;29;20051;-89
2023/08/06 15:58:10;;;;;;;1.95;1.20;;;;;;;;;;4927952;29;20063;-89
2023/08/06 16:00:39;;;;;;;1.50;1.05;;;;;;;;;;4915465;29;20062;-91
2023/08/06 16:03:07;;;;;;;1.48;1.00;;;;;;;;;;4921492;29;20051;-89
2023/08/06 16:05:36;;;;;;;2.78;0.95;;;;;;;;;;4933829;29;20071;-90
2023/08/06 16:08:06;;;;;;;1.55;1.08;;;;;;;;;;4915191;29;20542;-89
2023/08/06 16:10:37;;;;;;;1.95;1.10;;;;;;;;;;4918884;29;20059;-89
2023/08/06 16:13:07;;;;;;;1.10;0.90;;;;;;;;;;4927265;29;20439;-89